sensor_id;sensor_type;location;lat;lon;timestamp;temperature;humidity
32296;DHT22;18781;51.550;5.418;2022-10-30T00:00:33;18.60;65.10
32296;DHT22;18781;51.550;5.418;2022-10-30T00:02:59;18.60;65.20
32296;DHT22;18781;51.550;5.418;2022-10-30T00:05:25;18.60;65.30
32296;DHT22;18781;51.550;5.418;2022-10-30T00:07:50;18.60;65.40
32296;DHT22;18781;51.550;5.418;2022-10-30T00:10:17;18.50;65.20
32296;DHT22;18781;51.550;5.418;2022-10-30T00:12:42;18.50;65.20
32296;DHT22;18781;51.550;5.418;2022-10-30T00:15:09;18.50;65.30
32296;DHT22;18781;51.550;5.418;2022-10-30T00:17:35;18.50;65.20
32296;DHT22;18781;51.550;5.418;2022-10-30T00:20:01;18.50;65.30
32296;DHT22;18781;51.550;5.418;2022-10-30T00:22:27;18.40;65.70
32296;DHT22;18781;51.550;5.418;2022-10-30T00:24:52;18.40;65.40
32296;DHT22;18781;51.550;5.418;2022-10-30T00:27:18;18.40;65.50
32296;DHT22;18781;51.550;5.418;2022-10-30T00:29:44;18.40;65.50
32296;DHT22;18781;51.550;5.418;2022-10-30T00:32:09;18.30;65.50
32296;DHT22;18781;51.550;5.418;2022-10-30T00:34:35;18.30;65.60
32296;DHT22;18781;51.550;5.418;2022-10-30T00:37:01;18.30;65.60
32296;DHT22;18781;51.550;5.418;2022-10-30T00:39:26;18.30;65.60
32296;DHT22;18781;51.550;5.418;2022-10-30T00:41:52;18.30;65.70
32296;DHT22;18781;51.550;5.418;2022-10-30T00:44:50;18.20;65.60
32296;DHT22;18781;51.550;5.418;2022-10-30T00:47:31;18.20;65.80
32296;DHT22;18781;51.550;5.418;2022-10-30T00:50:23;18.10;65.80
32296;DHT22;18781;51.550;5.418;2022-10-30T00:55:25;18.10;65.80
32296;DHT22;18781;51.550;5.418;2022-10-30T00:57:51;18.10;66.00
32296;DHT22;18781;51.550;5.418;2022-10-30T01:00:20;18.00;65.80
32296;DHT22;18781;51.550;5.418;2022-10-30T01:02:47;18.00;65.90
32296;DHT22;18781;51.550;5.418;2022-10-30T01:05:17;18.00;65.90
32296;DHT22;18781;51.550;5.418;2022-10-30T01:07:44;17.90;66.00
32296;DHT22;18781;51.550;5.418;2022-10-30T01:10:10;17.90;66.10
32296;DHT22;18781;51.550;5.418;2022-10-30T01:12:36;17.90;66.10
32296;DHT22;18781;51.550;5.418;2022-10-30T01:15:03;17.90;66.10
32296;DHT22;18781;51.550;5.418;2022-10-30T01:26:14;17.80;66.70
32296;DHT22;18781;51.550;5.418;2022-10-30T01:31:45;17.70;66.70
32296;DHT22;18781;51.550;5.418;2022-10-30T01:37:02;17.70;66.60
32296;DHT22;18781;51.550;5.418;2022-10-30T01:39:38;17.60;66.70
32296;DHT22;18781;51.550;5.418;2022-10-30T01:50:50;17.50;66.70
32296;DHT22;18781;51.550;5.418;2022-10-30T01:53:31;17.50;67.20
32296;DHT22;18781;51.550;5.418;2022-10-30T01:59:13;17.40;67.30
32296;DHT22;18781;51.550;5.418;2022-10-30T02:01:42;17.40;67.30
32296;DHT22;18781;51.550;5.418;2022-10-30T02:04:09;17.40;66.90
32296;DHT22;18781;51.550;5.418;2022-10-30T02:06:36;17.40;67.10
32296;DHT22;18781;51.550;5.418;2022-10-30T02:09:03;17.40;67.10
32296;DHT22;18781;51.550;5.418;2022-10-30T02:11:29;17.40;67.10
32296;DHT22;18781;51.550;5.418;2022-10-30T02:13:56;17.40;67.20
32296;DHT22;18781;51.550;5.418;2022-10-30T02:16:23;17.40;67.20
32296;DHT22;18781;51.550;5.418;2022-10-30T02:18:48;17.30;67.20
32296;DHT22;18781;51.550;5.418;2022-10-30T02:21:14;17.30;67.30
32296;DHT22;18781;51.550;5.418;2022-10-30T02:23:40;17.30;67.30
32296;DHT22;18781;51.550;5.418;2022-10-30T02:26:05;17.30;67.30
32296;DHT22;18781;51.550;5.418;2022-10-30T02:28:31;17.20;67.20
32296;DHT22;18781;51.550;5.418;2022-10-30T02:30:57;17.20;67.30
32296;DHT22;18781;51.550;5.418;2022-10-30T02:33:23;17.20;67.40
32296;DHT22;18781;51.550;5.418;2022-10-30T02:35:50;17.20;67.50
32296;DHT22;18781;51.550;5.418;2022-10-30T02:38:15;17.20;67.50
32296;DHT22;18781;51.550;5.418;2022-10-30T02:40:41;17.20;67.50
32296;DHT22;18781;51.550;5.418;2022-10-30T02:43:07;17.20;67.50
32296;DHT22;18781;51.550;5.418;2022-10-30T02:45:32;17.10;67.50
32296;DHT22;18781;51.550;5.418;2022-10-30T02:47:59;17.10;68.10
32296;DHT22;18781;51.550;5.418;2022-10-30T02:50:25;17.10;67.60
32296;DHT22;18781;51.550;5.418;2022-10-30T02:52:51;17.10;67.70
32296;DHT22;18781;51.550;5.418;2022-10-30T02:55:16;17.10;67.70
32296;DHT22;18781;51.550;5.418;2022-10-30T02:57:42;17.10;67.70
32296;DHT22;18781;51.550;5.418;2022-10-30T03:00:08;17.10;67.70
32296;DHT22;18781;51.550;5.418;2022-10-30T03:02:34;17.00;67.70
32296;DHT22;18781;51.550;5.418;2022-10-30T03:05:00;17.00;67.80
32296;DHT22;18781;51.550;5.418;2022-10-30T03:07:25;17.00;67.80
32296;DHT22;18781;51.550;5.418;2022-10-30T03:09:51;17.00;67.90
32296;DHT22;18781;51.550;5.418;2022-10-30T03:12:18;17.00;67.90
32296;DHT22;18781;51.550;5.418;2022-10-30T03:14:44;16.90;67.90
32296;DHT22;18781;51.550;5.418;2022-10-30T03:17:11;16.90;68.00
32296;DHT22;18781;51.550;5.418;2022-10-30T03:19:37;16.90;68.10
32296;DHT22;18781;51.550;5.418;2022-10-30T03:22:02;16.90;68.10
32296;DHT22;18781;51.550;5.418;2022-10-30T03:24:28;16.90;68.30
32296;DHT22;18781;51.550;5.418;2022-10-30T03:26:54;16.90;68.40
32296;DHT22;18781;51.550;5.418;2022-10-30T03:29:19;16.90;68.50
32296;DHT22;18781;51.550;5.418;2022-10-30T03:31:45;16.90;68.50
32296;DHT22;18781;51.550;5.418;2022-10-30T03:34:10;16.90;68.50
32296;DHT22;18781;51.550;5.418;2022-10-30T03:36:36;16.80;68.40
32296;DHT22;18781;51.550;5.418;2022-10-30T03:39:02;16.90;68.60
32296;DHT22;18781;51.550;5.418;2022-10-30T03:41:28;16.90;68.70
32296;DHT22;18781;51.550;5.418;2022-10-30T03:43:53;16.90;68.80
32296;DHT22;18781;51.550;5.418;2022-10-30T03:46:19;16.80;68.70
32296;DHT22;18781;51.550;5.418;2022-10-30T03:48:48;16.80;68.70
32296;DHT22;18781;51.550;5.418;2022-10-30T03:51:14;16.80;68.90
32296;DHT22;18781;51.550;5.418;2022-10-30T03:53:39;16.80;68.80
32296;DHT22;18781;51.550;5.418;2022-10-30T03:56:05;16.80;68.90
32296;DHT22;18781;51.550;5.418;2022-10-30T03:58:31;16.80;68.90
32296;DHT22;18781;51.550;5.418;2022-10-30T04:01:01;16.80;69.00
32296;DHT22;18781;51.550;5.418;2022-10-30T04:03:27;16.80;69.30
32296;DHT22;18781;51.550;5.418;2022-10-30T04:05:52;16.80;69.10
32296;DHT22;18781;51.550;5.418;2022-10-30T04:08:18;16.80;69.10
32296;DHT22;18781;51.550;5.418;2022-10-30T04:10:45;16.80;69.10
32296;DHT22;18781;51.550;5.418;2022-10-30T04:13:14;16.80;69.10
32296;DHT22;18781;51.550;5.418;2022-10-30T04:15:40;16.80;69.10
32296;DHT22;18781;51.550;5.418;2022-10-30T04:18:06;16.80;69.00
32296;DHT22;18781;51.550;5.418;2022-10-30T04:20:33;16.80;69.00
32296;DHT22;18781;51.550;5.418;2022-10-30T04:23:01;16.80;69.60
32296;DHT22;18781;51.550;5.418;2022-10-30T04:25:28;16.80;69.00
32296;DHT22;18781;51.550;5.418;2022-10-30T04:27:53;16.80;68.90
32296;DHT22;18781;51.550;5.418;2022-10-30T04:30:20;16.80;69.00
32296;DHT22;18781;51.550;5.418;2022-10-30T04:32:51;16.80;69.00
32296;DHT22;18781;51.550;5.418;2022-10-30T04:35:18;16.70;69.30
32296;DHT22;18781;51.550;5.418;2022-10-30T04:38:01;16.70;69.20
32296;DHT22;18781;51.550;5.418;2022-10-30T04:40:32;16.70;69.70
32296;DHT22;18781;51.550;5.418;2022-10-30T04:42:59;16.70;69.60
32296;DHT22;18781;51.550;5.418;2022-10-30T04:45:25;16.70;69.30
32296;DHT22;18781;51.550;5.418;2022-10-30T04:47:50;16.70;69.30
32296;DHT22;18781;51.550;5.418;2022-10-30T04:50:17;16.70;69.40
32296;DHT22;18781;51.550;5.418;2022-10-30T04:52:43;16.70;69.50
32296;DHT22;18781;51.550;5.418;2022-10-30T04:55:09;16.70;69.60
32296;DHT22;18781;51.550;5.418;2022-10-30T04:57:36;16.70;69.60
32296;DHT22;18781;51.550;5.418;2022-10-30T05:00:05;16.60;69.60
32296;DHT22;18781;51.550;5.418;2022-10-30T05:02:34;16.60;69.90
32296;DHT22;18781;51.550;5.418;2022-10-30T05:05:01;16.60;69.70
32296;DHT22;18781;51.550;5.418;2022-10-30T05:07:26;16.60;69.70
32296;DHT22;18781;51.550;5.418;2022-10-30T05:09:52;16.60;69.80
32296;DHT22;18781;51.550;5.418;2022-10-30T05:12:17;16.60;69.80
32296;DHT22;18781;51.550;5.418;2022-10-30T05:14:43;16.60;69.80
32296;DHT22;18781;51.550;5.418;2022-10-30T05:17:09;16.60;69.80
32296;DHT22;18781;51.550;5.418;2022-10-30T05:19:35;16.60;69.80
32296;DHT22;18781;51.550;5.418;2022-10-30T05:22:00;16.60;69.80
32296;DHT22;18781;51.550;5.418;2022-10-30T05:24:26;16.60;69.80
32296;DHT22;18781;51.550;5.418;2022-10-30T05:26:51;16.60;69.70
32296;DHT22;18781;51.550;5.418;2022-10-30T05:29:17;16.60;69.70
32296;DHT22;18781;51.550;5.418;2022-10-30T05:31:43;16.60;69.80
32296;DHT22;18781;51.550;5.418;2022-10-30T05:34:08;16.50;69.70
32296;DHT22;18781;51.550;5.418;2022-10-30T05:36:34;16.50;69.70
32296;DHT22;18781;51.550;5.418;2022-10-30T05:38:59;16.50;69.70
32296;DHT22;18781;51.550;5.418;2022-10-30T05:41:27;16.50;69.70
32296;DHT22;18781;51.550;5.418;2022-10-30T05:43:53;16.50;69.70
32296;DHT22;18781;51.550;5.418;2022-10-30T05:46:18;16.50;69.60
32296;DHT22;18781;51.550;5.418;2022-10-30T05:48:44;16.50;69.60
32296;DHT22;18781;51.550;5.418;2022-10-30T05:51:10;16.50;69.70
32296;DHT22;18781;51.550;5.418;2022-10-30T05:53:35;16.40;69.60
32296;DHT22;18781;51.550;5.418;2022-10-30T05:56:01;16.40;69.60
32296;DHT22;18781;51.550;5.418;2022-10-30T05:58:27;16.40;69.60
32296;DHT22;18781;51.550;5.418;2022-10-30T06:00:52;16.40;69.60
32296;DHT22;18781;51.550;5.418;2022-10-30T06:03:18;16.40;69.60
32296;DHT22;18781;51.550;5.418;2022-10-30T06:05:45;16.30;69.50
32296;DHT22;18781;51.550;5.418;2022-10-30T06:08:11;16.30;69.60
32296;DHT22;18781;51.550;5.418;2022-10-30T06:10:37;16.30;69.60
32296;DHT22;18781;51.550;5.418;2022-10-30T06:13:05;16.30;69.60
32296;DHT22;18781;51.550;5.418;2022-10-30T06:15:31;16.20;69.60
32296;DHT22;18781;51.550;5.418;2022-10-30T06:17:58;16.20;69.50
32296;DHT22;18781;51.550;5.418;2022-10-30T06:20:26;16.20;69.50
32296;DHT22;18781;51.550;5.418;2022-10-30T06:22:56;16.20;69.50
32296;DHT22;18781;51.550;5.418;2022-10-30T06:25:22;16.10;70.00
32296;DHT22;18781;51.550;5.418;2022-10-30T06:27:48;16.10;69.40
32296;DHT22;18781;51.550;5.418;2022-10-30T06:30:14;16.10;69.50
32296;DHT22;18781;51.550;5.418;2022-10-30T06:32:40;16.10;69.40
32296;DHT22;18781;51.550;5.418;2022-10-30T06:35:06;16.00;69.40
32296;DHT22;18781;51.550;5.418;2022-10-30T06:37:32;16.00;69.50
32296;DHT22;18781;51.550;5.418;2022-10-30T06:39:58;16.00;69.60
32296;DHT22;18781;51.550;5.418;2022-10-30T06:42:23;16.00;69.70
32296;DHT22;18781;51.550;5.418;2022-10-30T06:44:49;15.90;69.70
32296;DHT22;18781;51.550;5.418;2022-10-30T06:47:15;15.90;69.70
32296;DHT22;18781;51.550;5.418;2022-10-30T06:49:41;15.90;69.70
32296;DHT22;18781;51.550;5.418;2022-10-30T06:52:06;15.90;69.80
32296;DHT22;18781;51.550;5.418;2022-10-30T06:54:32;15.80;69.60
32296;DHT22;18781;51.550;5.418;2022-10-30T06:56:58;15.80;69.60
32296;DHT22;18781;51.550;5.418;2022-10-30T06:59:23;15.80;69.60
32296;DHT22;18781;51.550;5.418;2022-10-30T07:01:49;15.80;69.70
32296;DHT22;18781;51.550;5.418;2022-10-30T07:04:14;15.80;69.70
32296;DHT22;18781;51.550;5.418;2022-10-30T07:06:40;15.70;69.70
32296;DHT22;18781;51.550;5.418;2022-10-30T07:09:06;15.80;69.80
32296;DHT22;18781;51.550;5.418;2022-10-30T07:11:31;15.70;69.90
32296;DHT22;18781;51.550;5.418;2022-10-30T07:13:57;15.70;70.10
32296;DHT22;18781;51.550;5.418;2022-10-30T07:16:23;15.70;70.10
32296;DHT22;18781;51.550;5.418;2022-10-30T07:18:48;15.70;70.20
32296;DHT22;18781;51.550;5.418;2022-10-30T07:21:15;15.70;70.30
32296;DHT22;18781;51.550;5.418;2022-10-30T07:23:41;15.70;70.30
32296;DHT22;18781;51.550;5.418;2022-10-30T07:26:06;15.70;70.40
32296;DHT22;18781;51.550;5.418;2022-10-30T07:28:32;15.70;70.50
32296;DHT22;18781;51.550;5.418;2022-10-30T07:30:58;15.60;71.10
32296;DHT22;18781;51.550;5.418;2022-10-30T07:33:24;15.70;70.70
32296;DHT22;18781;51.550;5.418;2022-10-30T07:35:50;15.70;70.70
32296;DHT22;18781;51.550;5.418;2022-10-30T07:38:16;15.70;70.80
32296;DHT22;18781;51.550;5.418;2022-10-30T07:40:42;15.70;70.80
32296;DHT22;18781;51.550;5.418;2022-10-30T07:43:08;15.70;70.90
32296;DHT22;18781;51.550;5.418;2022-10-30T07:45:37;15.80;71.00
32296;DHT22;18781;51.550;5.418;2022-10-30T07:48:03;15.80;71.20
32296;DHT22;18781;51.550;5.418;2022-10-30T07:50:29;15.70;71.00
32296;DHT22;18781;51.550;5.418;2022-10-30T07:52:55;15.80;71.30
32296;DHT22;18781;51.550;5.418;2022-10-30T07:55:21;15.80;71.40
32296;DHT22;18781;51.550;5.418;2022-10-30T07:57:46;15.80;71.50
32296;DHT22;18781;51.550;5.418;2022-10-30T08:00:13;15.80;71.50
32296;DHT22;18781;51.550;5.418;2022-10-30T08:02:39;15.80;71.60
32296;DHT22;18781;51.550;5.418;2022-10-30T08:05:05;15.90;71.70
32296;DHT22;18781;51.550;5.418;2022-10-30T08:07:35;15.90;71.80
32296;DHT22;18781;51.550;5.418;2022-10-30T08:10:02;15.90;72.00
32296;DHT22;18781;51.550;5.418;2022-10-30T08:12:28;16.00;72.20
32296;DHT22;18781;51.550;5.418;2022-10-30T08:14:54;16.00;72.40
32296;DHT22;18781;51.550;5.418;2022-10-30T08:17:20;16.10;72.70
32296;DHT22;18781;51.550;5.418;2022-10-30T08:19:45;16.10;72.80
32296;DHT22;18781;51.550;5.418;2022-10-30T08:22:12;16.20;73.00
32296;DHT22;18781;51.550;5.418;2022-10-30T08:24:38;16.20;73.10
32296;DHT22;18781;51.550;5.418;2022-10-30T08:27:04;16.30;73.10
32296;DHT22;18781;51.550;5.418;2022-10-30T08:29:30;16.30;73.30
32296;DHT22;18781;51.550;5.418;2022-10-30T08:31:55;16.30;73.30
32296;DHT22;18781;51.550;5.418;2022-10-30T08:34:21;16.40;73.30
32296;DHT22;18781;51.550;5.418;2022-10-30T08:36:48;16.50;73.30
32296;DHT22;18781;51.550;5.418;2022-10-30T08:39:15;16.50;73.30
32296;DHT22;18781;51.550;5.418;2022-10-30T08:41:40;16.60;73.30
32296;DHT22;18781;51.550;5.418;2022-10-30T08:44:06;16.70;73.30
32296;DHT22;18781;51.550;5.418;2022-10-30T08:46:31;16.70;73.50
32296;DHT22;18781;51.550;5.418;2022-10-30T08:48:57;16.80;73.30
32296;DHT22;18781;51.550;5.418;2022-10-30T08:51:23;16.90;73.30
32296;DHT22;18781;51.550;5.418;2022-10-30T08:53:48;16.90;73.30
32296;DHT22;18781;51.550;5.418;2022-10-30T08:56:15;17.00;73.30
32296;DHT22;18781;51.550;5.418;2022-10-30T08:58:40;17.00;73.20
32296;DHT22;18781;51.550;5.418;2022-10-30T09:01:06;17.10;73.30
32296;DHT22;18781;51.550;5.418;2022-10-30T09:03:31;17.20;73.40
32296;DHT22;18781;51.550;5.418;2022-10-30T09:06:00;17.20;73.30
32296;DHT22;18781;51.550;5.418;2022-10-30T09:08:27;17.30;73.50
32296;DHT22;18781;51.550;5.418;2022-10-30T09:10:56;17.40;73.30
32296;DHT22;18781;51.550;5.418;2022-10-30T09:13:23;17.40;73.50
32296;DHT22;18781;51.550;5.418;2022-10-30T09:15:49;17.50;73.40
32296;DHT22;18781;51.550;5.418;2022-10-30T09:18:14;17.60;73.30
32296;DHT22;18781;51.550;5.418;2022-10-30T09:20:40;17.70;73.90
32296;DHT22;18781;51.550;5.418;2022-10-30T09:23:06;17.70;73.20
32296;DHT22;18781;51.550;5.418;2022-10-30T09:25:31;17.80;73.00
32296;DHT22;18781;51.550;5.418;2022-10-30T09:27:57;17.90;73.00
32296;DHT22;18781;51.550;5.418;2022-10-30T09:30:23;18.00;73.10
32296;DHT22;18781;51.550;5.418;2022-10-30T09:32:59;18.10;72.80
32296;DHT22;18781;51.550;5.418;2022-10-30T09:35:26;18.20;73.10
32296;DHT22;18781;51.550;5.418;2022-10-30T09:37:52;18.20;72.50
32296;DHT22;18781;51.550;5.418;2022-10-30T09:40:43;18.30;72.50
32296;DHT22;18781;51.550;5.418;2022-10-30T09:43:33;18.40;72.30
32296;DHT22;18781;51.550;5.418;2022-10-30T09:46:04;18.50;72.40
32296;DHT22;18781;51.550;5.418;2022-10-30T09:48:56;18.60;72.20
32296;DHT22;18781;51.550;5.418;2022-10-30T09:56:31;18.80;71.80
32296;DHT22;18781;51.550;5.418;2022-10-30T10:04:40;19.00;71.30
32296;DHT22;18781;51.550;5.418;2022-10-30T10:07:31;19.10;71.20
32296;DHT22;18781;51.550;5.418;2022-10-30T10:10:03;19.10;71.10
32296;DHT22;18781;51.550;5.418;2022-10-30T10:12:36;19.20;70.90
32296;DHT22;18781;51.550;5.418;2022-10-30T10:15:09;19.20;70.60
32296;DHT22;18781;51.550;5.418;2022-10-30T10:17:39;19.30;70.90
32296;DHT22;18781;51.550;5.418;2022-10-30T10:20:18;19.30;70.30
32296;DHT22;18781;51.550;5.418;2022-10-30T10:22:50;19.40;70.50
32296;DHT22;18781;51.550;5.418;2022-10-30T10:25:18;19.40;70.30
32296;DHT22;18781;51.550;5.418;2022-10-30T10:30:19;19.50;70.00
32296;DHT22;18781;51.550;5.418;2022-10-30T10:40:53;19.80;69.70
32296;DHT22;18781;51.550;5.418;2022-10-30T10:51:33;20.00;69.00
32296;DHT22;18781;51.550;5.418;2022-10-30T10:54:04;20.00;68.90
32296;DHT22;18781;51.550;5.418;2022-10-30T10:56:39;20.00;68.90
32296;DHT22;18781;51.550;5.418;2022-10-30T11:01:41;20.10;68.40
32296;DHT22;18781;51.550;5.418;2022-10-30T11:06:53;20.20;68.40
32296;DHT22;18781;51.550;5.418;2022-10-30T11:09:21;20.30;68.20
32296;DHT22;18781;51.550;5.418;2022-10-30T11:11:49;20.40;68.30
32296;DHT22;18781;51.550;5.418;2022-10-30T11:14:20;20.40;68.10
32296;DHT22;18781;51.550;5.418;2022-10-30T11:19:53;20.50;67.60
32296;DHT22;18781;51.550;5.418;2022-10-30T11:22:28;20.60;67.70
32296;DHT22;18781;51.550;5.418;2022-10-30T11:24:54;20.60;67.00
32296;DHT22;18781;51.550;5.418;2022-10-30T11:27:24;20.60;67.30
32296;DHT22;18781;51.550;5.418;2022-10-30T11:29:56;20.60;67.00
32296;DHT22;18781;51.550;5.418;2022-10-30T11:32:26;20.70;66.90
32296;DHT22;18781;51.550;5.418;2022-10-30T11:37:35;20.80;66.80
32296;DHT22;18781;51.550;5.418;2022-10-30T11:42:36;20.80;66.70
32296;DHT22;18781;51.550;5.418;2022-10-30T11:45:04;20.90;66.60
32296;DHT22;18781;51.550;5.418;2022-10-30T11:47:37;20.90;66.70
32296;DHT22;18781;51.550;5.418;2022-10-30T11:50:29;21.00;66.60
32296;DHT22;18781;51.550;5.418;2022-10-30T11:52:59;21.00;66.20
32296;DHT22;18781;51.550;5.418;2022-10-30T11:55:38;21.10;66.10
32296;DHT22;18781;51.550;5.418;2022-10-30T11:58:06;21.10;65.70
32296;DHT22;18781;51.550;5.418;2022-10-30T12:00:35;21.10;66.10
32296;DHT22;18781;51.550;5.418;2022-10-30T12:03:02;21.20;65.90
32296;DHT22;18781;51.550;5.418;2022-10-30T12:05:38;21.20;66.00
32296;DHT22;18781;51.550;5.418;2022-10-30T12:13:20;21.40;65.40
32296;DHT22;18781;51.550;5.418;2022-10-30T12:15:48;21.40;65.10
32296;DHT22;18781;51.550;5.418;2022-10-30T12:18:27;21.40;65.00
32296;DHT22;18781;51.550;5.418;2022-10-30T12:20:55;21.50;64.90
32296;DHT22;18781;51.550;5.418;2022-10-30T12:23:23;21.50;65.10
32296;DHT22;18781;51.550;5.418;2022-10-30T12:25:52;21.60;64.90
32296;DHT22;18781;51.550;5.418;2022-10-30T12:28:24;21.60;64.90
32296;DHT22;18781;51.550;5.418;2022-10-30T12:33:45;21.70;64.80
32296;DHT22;18781;51.550;5.418;2022-10-30T12:36:21;21.70;65.30
32296;DHT22;18781;51.550;5.418;2022-10-30T12:39:04;21.70;64.40
32296;DHT22;18781;51.550;5.418;2022-10-30T12:41:34;21.70;64.20
32296;DHT22;18781;51.550;5.418;2022-10-30T12:44:13;21.80;64.60
32296;DHT22;18781;51.550;5.418;2022-10-30T12:46:44;21.80;64.30
32296;DHT22;18781;51.550;5.418;2022-10-30T12:49:24;21.80;64.30
32296;DHT22;18781;51.550;5.418;2022-10-30T12:51:59;21.90;64.10
32296;DHT22;18781;51.550;5.418;2022-10-30T12:54:55;21.90;64.00
32296;DHT22;18781;51.550;5.418;2022-10-30T13:00:14;22.00;64.00
32296;DHT22;18781;51.550;5.418;2022-10-30T13:05:32;22.10;63.70
32296;DHT22;18781;51.550;5.418;2022-10-30T13:10:52;22.20;63.40
32296;DHT22;18781;51.550;5.418;2022-10-30T13:13:43;22.30;63.00
32296;DHT22;18781;51.550;5.418;2022-10-30T13:16:15;22.30;63.40
32296;DHT22;18781;51.550;5.418;2022-10-30T13:18:41;22.30;63.20
32296;DHT22;18781;51.550;5.418;2022-10-30T13:23:57;22.40;62.50
32296;DHT22;18781;51.550;5.418;2022-10-30T13:34:23;22.40;62.30
32296;DHT22;18781;51.550;5.418;2022-10-30T13:37:21;22.40;62.50
32296;DHT22;18781;51.550;5.418;2022-10-30T13:40:25;22.50;62.20
32296;DHT22;18781;51.550;5.418;2022-10-30T13:45:56;22.50;62.20
32296;DHT22;18781;51.550;5.418;2022-10-30T13:48:42;22.50;61.60
32296;DHT22;18781;51.550;5.418;2022-10-30T13:54:20;22.50;61.50
32296;DHT22;18781;51.550;5.418;2022-10-30T13:56:47;22.60;61.40
32296;DHT22;18781;51.550;5.418;2022-10-30T13:59:22;22.50;61.40
32296;DHT22;18781;51.550;5.418;2022-10-30T14:02:04;22.60;60.90
32296;DHT22;18781;51.550;5.418;2022-10-30T14:05:11;22.60;60.70
32296;DHT22;18781;51.550;5.418;2022-10-30T14:10:28;22.60;60.60
32296;DHT22;18781;51.550;5.418;2022-10-30T14:20:45;22.60;60.40
32296;DHT22;18781;51.550;5.418;2022-10-30T14:25:38;22.60;60.40
32296;DHT22;18781;51.550;5.418;2022-10-30T14:28:04;22.60;60.30
32296;DHT22;18781;51.550;5.418;2022-10-30T14:30:32;22.60;60.00
32296;DHT22;18781;51.550;5.418;2022-10-30T14:32:58;22.60;59.80
32296;DHT22;18781;51.550;5.418;2022-10-30T14:35:33;22.60;60.10
32296;DHT22;18781;51.550;5.418;2022-10-30T14:40:40;22.60;60.00
32296;DHT22;18781;51.550;5.418;2022-10-30T14:43:25;22.60;60.20
32296;DHT22;18781;51.550;5.418;2022-10-30T14:46:02;22.60;60.60
32296;DHT22;18781;51.550;5.418;2022-10-30T14:48:44;22.60;59.80
32296;DHT22;18781;51.550;5.418;2022-10-30T14:51:28;22.60;59.60
32296;DHT22;18781;51.550;5.418;2022-10-30T14:54:15;22.60;59.60
32296;DHT22;18781;51.550;5.418;2022-10-30T14:56:50;22.60;59.70
32296;DHT22;18781;51.550;5.418;2022-10-30T15:04:34;22.60;59.30
32296;DHT22;18781;51.550;5.418;2022-10-30T15:07:25;22.60;59.50
32296;DHT22;18781;51.550;5.418;2022-10-30T15:15:08;22.60;59.40
32296;DHT22;18781;51.550;5.418;2022-10-30T15:17:50;22.50;59.30
32296;DHT22;18781;51.550;5.418;2022-10-30T15:20:17;22.50;59.20
32296;DHT22;18781;51.550;5.418;2022-10-30T15:22:47;22.50;59.30
32296;DHT22;18781;51.550;5.418;2022-10-30T15:25:30;22.50;59.00
32296;DHT22;18781;51.550;5.418;2022-10-30T15:27:57;22.40;58.90
32296;DHT22;18781;51.550;5.418;2022-10-30T15:30:25;22.40;59.20
32296;DHT22;18781;51.550;5.418;2022-10-30T15:32:51;22.40;59.10
32296;DHT22;18781;51.550;5.418;2022-10-30T15:35:19;22.40;59.20
32296;DHT22;18781;51.550;5.418;2022-10-30T15:38:06;22.30;59.20
32296;DHT22;18781;51.550;5.418;2022-10-30T15:40:35;22.30;59.20
32296;DHT22;18781;51.550;5.418;2022-10-30T15:43:03;22.30;59.40
32296;DHT22;18781;51.550;5.418;2022-10-30T15:45:33;22.20;59.40
32296;DHT22;18781;51.550;5.418;2022-10-30T15:50:44;22.10;59.40
32296;DHT22;18781;51.550;5.418;2022-10-30T15:53:18;22.10;59.60
32296;DHT22;18781;51.550;5.418;2022-10-30T15:55:45;22.00;59.60
32296;DHT22;18781;51.550;5.418;2022-10-30T15:58:16;22.00;59.70
32296;DHT22;18781;51.550;5.418;2022-10-30T16:00:54;22.00;59.80
32296;DHT22;18781;51.550;5.418;2022-10-30T16:03:20;21.90;59.70
32296;DHT22;18781;51.550;5.418;2022-10-30T16:05:46;21.90;59.90
32296;DHT22;18781;51.550;5.418;2022-10-30T16:08:16;21.90;60.00
32296;DHT22;18781;51.550;5.418;2022-10-30T16:10:44;21.80;60.00
32296;DHT22;18781;51.550;5.418;2022-10-30T16:13:16;21.80;60.10
32296;DHT22;18781;51.550;5.418;2022-10-30T16:15:43;21.70;60.20
32296;DHT22;18781;51.550;5.418;2022-10-30T16:18:26;21.70;60.30
32296;DHT22;18781;51.550;5.418;2022-10-30T16:20:55;21.70;60.50
32296;DHT22;18781;51.550;5.418;2022-10-30T16:23:21;21.60;60.60
32296;DHT22;18781;51.550;5.418;2022-10-30T16:25:56;21.60;60.70
32296;DHT22;18781;51.550;5.418;2022-10-30T16:28:45;21.60;60.90
32296;DHT22;18781;51.550;5.418;2022-10-30T16:31:11;21.50;61.10
32296;DHT22;18781;51.550;5.418;2022-10-30T16:33:40;21.50;61.00
32296;DHT22;18781;51.550;5.418;2022-10-30T16:36:14;21.40;61.20
32296;DHT22;18781;51.550;5.418;2022-10-30T16:38:43;21.40;61.30
32296;DHT22;18781;51.550;5.418;2022-10-30T16:41:10;21.40;61.40
32296;DHT22;18781;51.550;5.418;2022-10-30T16:43:42;21.30;61.40
32296;DHT22;18781;51.550;5.418;2022-10-30T16:48:55;21.20;61.80
32296;DHT22;18781;51.550;5.418;2022-10-30T16:51:22;21.20;62.00
32296;DHT22;18781;51.550;5.418;2022-10-30T16:53:50;21.20;61.80
32296;DHT22;18781;51.550;5.418;2022-10-30T16:56:22;21.10;61.80
32296;DHT22;18781;51.550;5.418;2022-10-30T16:58:50;21.10;61.60
32296;DHT22;18781;51.550;5.418;2022-10-30T17:01:16;21.00;61.60
32296;DHT22;18781;51.550;5.418;2022-10-30T17:03:42;21.00;61.50
32296;DHT22;18781;51.550;5.418;2022-10-30T17:06:41;20.90;61.50
32296;DHT22;18781;51.550;5.418;2022-10-30T17:09:23;20.90;61.60
32296;DHT22;18781;51.550;5.418;2022-10-30T17:12:25;20.80;61.60
32296;DHT22;18781;51.550;5.418;2022-10-30T17:15:02;20.80;61.70
32296;DHT22;18781;51.550;5.418;2022-10-30T17:17:36;20.70;61.50
32296;DHT22;18781;51.550;5.418;2022-10-30T17:20:04;20.70;61.60
32296;DHT22;18781;51.550;5.418;2022-10-30T17:22:30;20.70;61.70
32296;DHT22;18781;51.550;5.418;2022-10-30T17:24:57;20.60;61.70
32296;DHT22;18781;51.550;5.418;2022-10-30T17:27:27;20.60;61.90
32296;DHT22;18781;51.550;5.418;2022-10-30T17:29:53;20.50;62.00
32296;DHT22;18781;51.550;5.418;2022-10-30T17:32:27;20.50;62.10
32296;DHT22;18781;51.550;5.418;2022-10-30T17:35:12;20.50;62.10
32296;DHT22;18781;51.550;5.418;2022-10-30T17:37:38;20.50;62.20
32296;DHT22;18781;51.550;5.418;2022-10-30T17:40:04;20.40;62.30
32296;DHT22;18781;51.550;5.418;2022-10-30T17:42:30;20.40;62.40
32296;DHT22;18781;51.550;5.418;2022-10-30T17:44:55;20.40;62.50
32296;DHT22;18781;51.550;5.418;2022-10-30T17:47:21;20.30;62.50
32296;DHT22;18781;51.550;5.418;2022-10-30T17:49:48;20.30;62.90
32296;DHT22;18781;51.550;5.418;2022-10-30T17:52:16;20.30;62.60
32296;DHT22;18781;51.550;5.418;2022-10-30T17:54:42;20.30;62.80
32296;DHT22;18781;51.550;5.418;2022-10-30T17:57:09;20.20;62.80
32296;DHT22;18781;51.550;5.418;2022-10-30T17:59:36;20.20;62.90